Time;durP1;ratioP1;P1;durP2;ratioP2;P2;SDS_P1;SDS_P2;PMS_P1;PMS_P2;Temp;Humidity;BMP_temperature;BMP_pressure;BME280_temperature;BME280_humidity;BME280_pressure;Samples;Min_cycle;Max_cycle;Signal;HPM_P1;HPM_P2
2021/04/15 00:02:47;;;;;;;3.80;3.17;;;;;;;0.19;80.88;99885.28;471827;1171;114248;-60
2021/04/15 00:12:51;;;;;;;3.35;2.90;;;;;;;0.19;80.91;99886.99;472448;1170;113956;-59
2021/04/15 00:22:55;;;;;;;4.47;4.07;;;;;;;0.18;81.21;99870.66;471328;1170;115360;-60
2021/04/15 00:32:59;;;;;;;3.50;3.20;;;;;;;0.18;81.73;99865.50;471830;1170;114421;-60
2021/04/15 00:43:04;;;;;;;4.00;3.70;;;;;;;0.17;81.53;99855.18;471853;1171;113804;-60
2021/04/15 00:53:13;;;;;;;4.10;3.25;;;;;;;0.18;82.03;99852.58;471302;1170;113655;-61
2021/04/15 01:03:17;;;;;;;4.45;3.90;;;;;;;0.14;81.12;99853.49;471799;1171;113683;-60
2021/04/15 01:13:38;;;;;;;4.35;3.75;;;;;;;0.16;81.75;99843.15;471522;1171;113635;-60
2021/04/15 01:23:49;;;;;;;3.55;3.25;;;;;;;0.14;81.56;99840.58;471383;1171;113652;-60
2021/04/15 01:33:59;;;;;;;4.25;3.20;;;;;;;0.15;81.84;99837.12;470952;1171;113826;-60
2021/04/15 01:44:07;;;;;;;4.10;3.77;;;;;;;0.16;81.69;99827.66;471259;1171;113989;-59
2021/04/15 01:54:14;;;;;;;6.50;4.60;;;;;;;0.21;82.01;99811.20;471706;1171;114390;-61
2021/04/15 02:04:24;;;;;;;6.13;3.90;;;;;;;0.24;81.73;99795.64;471061;1170;113892;-60
2021/04/15 02:14:33;;;;;;;5.13;4.63;;;;;;;0.31;81.98;99791.20;471414;1171;114159;-60
2021/04/15 02:24:43;;;;;;;4.65;4.15;;;;;;;0.33;81.85;99781.69;471246;1170;113734;-63
2021/04/15 02:34:53;;;;;;;4.93;4.43;;;;;;;0.36;82.22;99779.08;471429;1171;114892;-61
2021/04/15 02:45:04;;;;;;;5.03;3.20;;;;;;;0.42;82.75;99778.11;471362;1171;114485;-60
2021/04/15 02:55:18;;;;;;;4.23;3.83;;;;;;;0.45;82.47;99765.13;471258;1171;113668;-60
2021/04/15 03:05:25;;;;;;;4.00;3.40;;;;;;;0.43;81.84;99763.44;470893;1170;114907;-60
2021/04/15 03:15:30;;;;;;;;;;;;;;;0.41;82.28;99760.91;471416;1171;113806;-61
2021/04/15 03:25:33;;;;;;;5.65;3.95;;;;;;;0.40;82.02;99759.17;471157;1170;101630;-61
2021/04/15 03:35:42;;;;;;;5.00;4.60;;;;;;;0.40;82.24;99761.75;471467;1171;114289;-60
2021/04/15 03:45:51;;;;;;;4.73;4.33;;;;;;;0.41;82.41;99750.57;471532;1170;114167;-60
2021/04/15 03:55:58;;;;;;;4.43;4.03;;;;;;;0.39;82.62;99750.59;471425;1171;113659;-59
2021/04/15 04:06:05;;;;;;;3.83;3.53;;;;;;;0.35;82.58;99748.95;471510;1171;114046;-61
2021/04/15 04:16:17;;;;;;;3.77;3.47;;;;;;;0.29;82.07;99743.89;471746;1171;113662;-60
2021/04/15 04:26:30;;;;;;;4.03;3.73;;;;;;;0.26;82.41;99754.30;471577;1170;114070;-58
2021/04/15 04:36:36;;;;;;;4.30;3.90;;;;;;;0.23;82.81;99744.00;471948;1170;113654;-61
2021/04/15 04:46:44;;;;;;;4.67;3.87;;;;;;;0.15;82.88;99753.64;472874;1170;113631;-60
2021/04/15 04:56:54;;;;;;;5.60;5.10;;;;;;;0.16;82.52;99751.02;471763;1171;113964;-61
2021/04/15 05:07:03;;;;;;;3.90;3.60;;;;;;;0.19;82.37;99747.53;472105;1170;114081;-60
2021/04/15 05:17:16;;;;;;;5.90;4.83;;;;;;;0.24;82.96;99740.56;471505;1171;113671;-60
2021/04/15 05:27:21;;;;;;;8.50;6.65;;;;;;;0.33;82.28;99740.36;471673;1171;113697;-60
2021/04/15 05:37:28;;;;;;;5.27;4.83;;;;;;;0.39;82.53;99736.81;471091;1171;113979;-60
2021/04/15 05:47:37;;;;;;;6.30;5.80;;;;;;;0.49;82.73;99740.08;471366;1170;114560;-60
2021/04/15 05:57:44;;;;;;;6.93;6.23;;;;;;;0.61;82.12;99732.07;471476;1171;114101;-61
2021/04/15 06:07:50;;;;;;;5.93;5.33;;;;;;;0.69;81.77;99740.52;471340;1170;114556;-61
2021/04/15 06:18:01;;;;;;;6.10;5.60;;;;;;;0.73;82.05;99727.53;470762;1171;114555;-65
2021/04/15 06:28:08;;;;;;;6.13;5.53;;;;;;;0.75;82.12;99716.28;471075;1170;114048;-66
2021/04/15 06:38:40;;;;;;;6.15;5.55;;;;;;;0.81;81.96;99716.13;470958;1170;114095;-64
2021/04/15 06:49:16;;;;;;;7.60;6.60;;;;;;;0.92;81.47;99710.70;471698;1170;113971;-65
2021/04/15 06:59:53;;;;;;;6.33;5.73;;;;;;;1.17;81.75;99701.55;471338;1171;114512;-61
2021/04/15 07:10:25;;;;;;;6.27;5.67;;;;;;;1.46;81.38;99705.19;470951;1171;113683;-63
2021/04/15 07:20:40;;;;;;;7.30;6.60;;;;;;;1.62;80.86;99703.91;456768;1171;20002538;-61
2021/04/15 07:31:04;;;;;;;7.15;6.45;;;;;;;1.76;80.98;99711.33;470223;1170;114457;-62
2021/04/15 07:41:22;;;;;;;7.30;6.37;;;;;;;2.07;81.05;99712.25;479658;1171;114413;-61
2021/04/15 07:51:46;;;;;;;5.85;5.35;;;;;;;2.37;80.35;99704.53;471231;1170;114085;-61
2021/04/15 10:09:36;;;;;;;4.70;4.30;;;;;;;5.04;74.95;99679.97;488074;1165;64407;-58
2021/04/15 10:20:10;;;;;;;5.50;4.70;;;;;;;4.99;74.84;99683.66;468870;1177;113520;-57
2021/04/15 10:30:35;;;;;;;5.35;4.15;;;;;;;5.10;74.57;99681.48;468413;1177;113874;-60
2021/04/15 10:40:53;;;;;;;6.20;5.60;;;;;;;4.73;74.82;99682.89;468500;1177;114136;-60
2021/04/15 10:51:03;;;;;;;4.80;4.30;;;;;;;4.48;75.46;99670.83;468601;1177;115105;-63
2021/04/15 11:01:28;;;;;;;4.63;4.23;;;;;;;4.24;75.30;99677.80;468980;1177;113723;-61
2021/04/15 11:11:32;;;;;;;4.87;4.47;;;;;;;4.44;76.18;99682.26;469506;1176;113691;-61
2021/04/15 11:21:40;;;;;;;4.70;4.10;;;;;;;4.49;76.10;99675.98;468917;1177;113771;-70
2021/04/15 11:31:44;;;;;;;7.50;4.90;;;;;;;4.41;75.68;99680.61;469250;1177;114098;-62
2021/04/15 11:41:55;;;;;;;6.00;4.90;;;;;;;4.17;75.83;99683.20;468892;1177;114344;-62
2021/04/15 11:52:06;;;;;;;5.80;5.20;;;;;;;4.03;76.35;99688.89;469270;1177;113930;-63
2021/04/15 12:02:18;;;;;;;9.47;8.47;;;;;;;4.08;76.64;99685.30;468940;1177;114383;-62
2021/04/15 12:12:34;;;;;;;7.00;5.60;;;;;;;4.28;75.78;99685.44;468842;1177;114140;-61
2021/04/15 12:22:45;;;;;;;6.10;5.30;;;;;;;4.94;75.75;99686.44;469271;1177;113843;-63
2021/04/15 12:32:58;;;;;;;7.70;6.95;;;;;;;5.21;74.91;99688.84;469561;1176;114780;-63
2021/04/15 12:43:10;;;;;;;5.37;4.90;;;;;;;5.04;74.96;99681.70;469380;1177;113822;-62
2021/04/15 12:53:15;;;;;;;8.10;6.50;;;;;;;5.27;74.17;99683.41;469479;1176;114284;-63
2021/04/15 13:03:27;;;;;;;7.35;6.65;;;;;;;5.33;73.55;99677.92;469364;1177;114521;-64
2021/04/15 13:13:41;;;;;;;6.00;5.40;;;;;;;5.57;74.12;99683.03;469385;1177;114053;-67
2021/04/15 13:23:47;;;;;;;6.93;6.33;;;;;;;5.55;73.46;99684.85;469305;1177;113990;-66
2021/04/15 13:34:07;;;;;;;6.20;5.20;;;;;;;5.30;73.87;99685.88;469231;1176;114630;-65
2021/04/15 13:44:33;;;;;;;7.00;6.30;;;;;;;5.61;74.34;99679.41;469435;1177;115453;-68
2021/04/15 13:54:41;;;;;;;8.10;7.40;;;;;;;6.31;73.24;99686.01;469392;1177;114851;-68
2021/04/15 14:04:46;;;;;;;;;;;;;;;5.65;72.26;99687.08;469281;1177;114579;-60
2021/04/15 14:14:55;;;;;;;6.10;5.50;;;;;;;5.92;73.03;99684.20;469381;1176;101801;-61
2021/04/15 14:25:09;;;;;;;9.40;8.50;;;;;;;5.92;72.53;99685.06;469304;1177;114664;-61
2021/04/15 14:35:19;;;;;;;7.70;7.00;;;;;;;5.64;72.72;99688.83;469321;1177;114073;-62
2021/04/15 14:45:26;;;;;;;7.55;5.90;;;;;;;5.60;72.20;99692.48;468882;1177;114112;-64
2021/04/15 14:55:32;;;;;;;7.90;7.10;;;;;;;5.54;72.84;99683.16;469129;1177;114688;-62
2021/04/15 15:05:43;;;;;;;8.95;8.05;;;;;;;5.37;73.05;99693.41;469121;1176;114491;-64
2021/04/15 15:15:50;;;;;;;7.10;6.40;;;;;;;5.12;73.19;99690.06;468847;1177;114788;-65
2021/04/15 15:25:56;;;;;;;6.45;5.85;;;;;;;5.16;73.11;99683.81;468439;1177;114074;-67
2021/04/15 15:36:10;;;;;;;6.55;5.50;;;;;;;5.15;73.82;99691.70;469157;1177;114634;-69
2021/04/15 15:46:40;;;;;;;7.55;6.85;;;;;;;4.98;73.76;99687.17;469033;1177;114272;-68
2021/04/15 15:56:45;;;;;;;9.20;8.30;;;;;;;4.90;73.61;99693.52;469379;1177;114024;-63
2021/04/15 16:07:05;;;;;;;7.67;6.70;;;;;;;4.62;74.15;99688.52;469959;1177;114116;-61
2021/04/15 16:17:10;;;;;;;12.75;9.20;;;;;;;4.37;74.46;99691.17;470162;1177;114212;-70
2021/04/15 16:27:14;;;;;;;17.97;9.07;;;;;;;4.27;74.64;99685.48;469286;1177;114702;-69
2021/04/15 16:37:22;;;;;;;6.80;6.10;;;;;;;4.22;75.24;99674.41;469523;1177;115857;-69
2021/04/15 16:47:27;;;;;;;8.27;7.20;;;;;;;4.22;75.29;99690.01;461455;1176;10001626;-73
2021/04/15 16:57:32;;;;;;;12.30;7.30;;;;;;;4.11;75.73;99683.45;469401;1177;114525;-66
2021/04/15 17:07:37;;;;;;;9.20;7.00;;;;;;;4.10;76.13;99683.48;468835;1176;114905;-63
2021/04/15 17:17:42;;;;;;;10.35;8.55;;;;;;;4.02;75.99;99681.17;469005;1175;115130;-66
2021/04/15 17:27:47;;;;;;;10.00;9.00;;;;;;;3.85;76.70;99690.38;469188;1177;115542;-67
2021/04/15 17:37:52;;;;;;;8.40;7.50;;;;;;;3.73;76.77;99690.81;469040;1177;113859;-66
2021/04/15 17:47:57;;;;;;;8.57;7.57;;;;;;;3.76;77.01;99695.92;469222;1177;115689;-65
2021/04/15 17:58:03;;;;;;;11.10;9.15;;;;;;;3.77;77.17;99708.00;469394;1177;115186;-68
2021/04/15 18:08:09;;;;;;;19.25;12.20;;;;;;;3.63;77.22;99711.89;469106;1177;115174;-65
2021/04/15 18:18:15;;;;;;;15.30;10.73;;;;;;;3.58;77.67;99726.79;469381;1177;116815;-65
2021/04/15 18:28:24;;;;;;;10.05;8.25;;;;;;;3.57;77.67;99732.88;469677;1177;114945;-64
2021/04/15 18:38:30;;;;;;;13.60;10.15;;;;;;;3.57;77.77;99732.88;469541;1177;115590;-65
2021/04/15 18:48:35;;;;;;;15.75;12.05;;;;;;;3.55;77.91;99741.61;469406;1176;114850;-63
2021/04/15 18:58:40;;;;;;;13.50;10.90;;;;;;;3.63;78.48;99731.83;468979;1177;115377;-67
2021/04/15 19:08:44;;;;;;;20.60;14.63;;;;;;;3.48;78.59;99725.39;469119;1177;114622;-65
2021/04/15 19:18:50;;;;;;;20.80;14.90;;;;;;;3.42;78.86;99731.63;468766;1177;114914;-67
2021/04/15 19:28:54;;;;;;;20.80;15.40;;;;;;;3.42;79.19;99728.20;469000;1177;114582;-69
2021/04/15 19:39:00;;;;;;;17.25;14.10;;;;;;;3.47;79.36;99726.30;468872;1177;114228;-65
2021/04/15 19:49:05;;;;;;;19.50;15.65;;;;;;;3.40;79.86;99723.05;468907;1176;114213;-65
2021/04/15 19:59:11;;;;;;;17.65;14.25;;;;;;;3.33;80.06;99724.13;468881;1177;114846;-65
2021/04/15 20:09:16;;;;;;;12.60;10.80;;;;;;;3.39;80.56;99723.95;469182;1177;114087;-64
2021/04/15 20:19:21;;;;;;;12.05;9.65;;;;;;;3.35;80.35;99718.00;469092;1176;114922;-68
2021/04/15 20:29:26;;;;;;;13.80;10.10;;;;;;;3.39;80.29;99725.68;469481;1176;114892;-67
2021/04/15 20:39:30;;;;;;;11.70;9.80;;;;;;;3.37;80.40;99723.16;461073;1177;10001908;-67
2021/04/15 20:49:35;;;;;;;11.20;9.70;;;;;;;3.31;80.81;99716.41;477812;1177;114102;-70
2021/04/15 20:59:40;;;;;;;14.23;12.73;;;;;;;3.33;80.94;99719.80;469211;1177;114291;-71
2021/04/15 21:09:44;;;;;;;13.95;11.05;;;;;;;3.31;80.99;99700.84;469145;1177;114936;-68
2021/04/15 21:19:49;;;;;;;14.90;12.00;;;;;;;3.39;81.37;99705.78;469062;1177;114688;-68
2021/04/15 21:29:53;;;;;;;14.67;11.63;;;;;;;3.34;81.33;99695.54;468763;1177;114855;-65
2021/04/15 21:39:58;;;;;;;18.00;13.30;;;;;;;3.36;81.39;99691.14;468789;1177;114928;-63
2021/04/15 21:50:04;;;;;;;17.55;13.85;;;;;;;3.48;81.63;99689.05;468766;1177;114288;-70
2021/04/15 22:00:26;;;;;;;15.10;12.95;;;;;;;3.44;81.84;99685.70;468847;1177;114236;-69
2021/04/15 22:10:36;;;;;;;13.90;12.10;;;;;;;3.46;81.82;99690.84;469065;1177;114285;-72
2021/04/15 22:20:45;;;;;;;15.43;13.40;;;;;;;3.44;81.78;99683.09;469411;1177;114391;-67
2021/04/15 22:30:51;;;;;;;15.05;13.45;;;;;;;3.36;81.92;99665.19;469161;1178;114191;-68
2021/04/15 22:40:57;;;;;;;15.00;12.60;;;;;;;3.36;82.13;99669.55;469432;1177;114444;-71
2021/04/15 22:51:02;;;;;;;15.95;12.90;;;;;;;3.33;82.06;99667.89;469295;1177;114478;-69
2021/04/15 23:01:11;;;;;;;15.30;13.37;;;;;;;3.25;82.21;99662.09;469373;1176;114444;-69
2021/04/15 23:11:15;;;;;;;14.00;12.60;;;;;;;3.28;82.59;99656.80;469358;1177;114725;-69
2021/04/15 23:21:19;;;;;;;14.00;12.13;;;;;;;3.25;82.58;99646.52;469372;1177;114822;-70
2021/04/15 23:31:24;;;;;;;15.80;12.65;;;;;;;3.20;82.83;99632.86;469604;1176;114880;-70
2021/04/15 23:41:29;;;;;;;15.80;12.55;;;;;;;3.14;83.09;99626.13;469577;1177;114894;-70
2021/04/15 23:51:34;;;;;;;14.35;12.80;;;;;;;3.08;83.39;99615.94;469475;1177;115822;-74
